Terminal Aerodrome Forecast
Issued by NWS Chicago, IL

Home | Current Version | Previous Version | Text Only | Print | Product List | Glossary Off
Versions: 1 2 3 4 5 6 7 8 9 10 11 12 13 14 15 16 17 18 19 20 21 22 23 24 25 26 27 28

000
FTUS43 KLOT 221733
TAFRFD
TAF
KRFD 221733Z 2218/2318 23014G20KT P6SM SCT100 BKN250
     FM222000 23015G23KT P6SM VCSH BKN060 BKN100
      TEMPO 2221/2224 5SM -TSRA BKN050CB
     FM230100 22013G19KT P6SM VCSH BKN050
     FM230600 20009KT P6SM BKN025 BKN035
     FM231500 20010KT P6SM -SHRA BKN025 OVC040=

USA.gov is the U.S. government's official web portal to all federal, state and local government web resources and services.